createdAt,value
2024-01-11T00:01:56.456Z,0
2024-01-11T00:06:18.616Z,0
2024-01-11T00:11:18.545Z,0
2024-01-11T00:16:18.949Z,0
2024-01-11T00:21:15.097Z,0
2024-01-11T00:26:14.642Z,0
2024-01-11T00:31:14.946Z,0
2024-01-11T00:36:14.165Z,0
2024-01-11T00:51:14.080Z,0
2024-01-11T00:56:13.723Z,0
2024-01-11T01:00:35.948Z,0
2024-01-11T01:05:35.271Z,0
2024-01-11T01:15:35.114Z,0
2024-01-11T01:20:34.799Z,0
2024-01-11T01:25:34.293Z,0
2024-01-11T01:30:34.935Z,0
2024-01-11T01:35:35.514Z,0
2024-01-11T01:40:33.713Z,0
2024-01-11T01:45:33.081Z,0
2024-01-11T01:50:33.325Z,0
2024-01-11T01:55:32.969Z,0
2024-01-11T02:00:22.766Z,0
2024-01-11T02:05:23.071Z,0
2024-01-11T02:10:22.993Z,0
2024-01-11T02:15:23.004Z,0
2024-01-11T02:20:23.471Z,0
2024-01-11T02:25:20.398Z,0
2024-01-11T02:30:23.353Z,0
2024-01-11T02:35:20.033Z,0
2024-01-11T02:40:20.118Z,0
2024-01-11T02:45:20.245Z,0
2024-01-11T02:50:20.468Z,0
2024-01-11T02:55:20.546Z,0
2024-01-11T03:00:03.956Z,0
2024-01-11T03:05:08.757Z,0
2024-01-11T03:10:01.255Z,0
2024-01-11T03:15:01.603Z,0
2024-01-11T03:20:02.775Z,0
2024-01-11T03:25:02.035Z,0
2024-01-11T03:30:02.128Z,0
2024-01-11T03:35:03.178Z,0
2024-01-11T03:40:06.595Z,0
2024-01-11T03:45:04.303Z,0
2024-01-11T03:50:00.698Z,0
2024-01-11T03:55:00.085Z,0
2024-01-11T04:00:00.411Z,0
2024-01-11T04:04:59.672Z,0
2024-01-11T04:09:59.424Z,0
2024-01-11T04:15:00.142Z,0
2024-01-11T04:19:59.918Z,0
2024-01-11T04:24:59.734Z,0
2024-01-11T04:30:01.087Z,0
2024-01-11T04:34:58.356Z,0
2024-01-11T04:39:57.671Z,0
2024-01-11T04:44:58.718Z,0
2024-01-11T04:49:58.184Z,0
2024-01-11T04:54:58.404Z,0
2024-01-11T04:59:59.661Z,0
2024-01-11T05:02:03.154Z,0
2024-01-11T05:06:21.171Z,0
2024-01-11T05:11:20.152Z,0
2024-01-11T05:16:19.867Z,0
2024-01-11T05:21:20.660Z,0
2024-01-11T05:26:19.944Z,0
2024-01-11T05:31:20.466Z,0
2024-01-11T05:36:20.453Z,0
2024-01-11T05:41:20.255Z,0
2024-01-11T05:46:25.795Z,0
2024-01-11T05:51:18.190Z,0
2024-01-11T05:56:17.508Z,0
2024-01-11T06:00:38.962Z,0
2024-01-11T06:05:39.234Z,0
2024-01-11T06:10:38.788Z,0
2024-01-11T06:20:39.535Z,0
2024-01-11T06:25:39.076Z,0
2024-01-11T06:30:36.416Z,0
2024-01-11T06:35:36.020Z,0
2024-01-11T06:40:35.586Z,0
2024-01-11T06:45:36.202Z,0
2024-01-11T06:50:35.972Z,0
2024-01-11T06:55:35.395Z,0
2024-01-11T07:00:25.469Z,0
2024-01-11T07:05:23.044Z,0
2024-01-11T07:10:23.924Z,0
2024-01-11T07:15:20.820Z,0
2024-01-11T07:20:20.457Z,0
2024-01-11T07:25:19.830Z,0
2024-01-11T07:30:20.773Z,0.01
2024-01-11T07:35:26.005Z,0.01
2024-01-11T07:40:20.629Z,0.01
2024-01-11T07:45:21.892Z,0.02
2024-01-11T07:50:23.937Z,0.02
2024-01-11T07:55:19.130Z,0.02
2024-01-11T08:02:05.221Z,0.03
2024-01-11T08:06:24.389Z,0.04
2024-01-11T08:11:24.524Z,0.04
2024-01-11T08:16:24.861Z,0.05
2024-01-11T08:21:25.194Z,0.05
2024-01-11T08:26:26.308Z,0.06
2024-01-11T08:31:22.721Z,0.06
2024-01-11T08:36:22.946Z,0.07
2024-01-11T08:41:22.964Z,0.08
2024-01-11T08:46:23.073Z,0.08
2024-01-11T08:51:25.870Z,0.09
2024-01-11T08:56:23.655Z,0.1
2024-01-11T09:01:06.739Z,0.1
2024-01-11T09:05:58.618Z,0.11
2024-01-11T09:10:54.161Z,0.12
2024-01-11T09:15:44.496Z,0.12
2024-01-11T09:20:44.610Z,0.13
2024-01-11T09:25:50.093Z,0.14
2024-01-11T09:30:44.573Z,0.14
2024-01-11T09:35:47.531Z,0.15
2024-01-11T09:40:44.953Z,0.16
2024-01-11T09:45:44.884Z,0.17
2024-01-11T09:50:42.791Z,0.17
2024-01-11T09:55:41.943Z,0.18
2024-01-11T10:00:26.336Z,0.18
2024-01-11T10:05:26.978Z,0.19
2024-01-11T10:10:25.096Z,0.2
2024-01-11T10:15:25.417Z,0.2
2024-01-11T10:20:26.864Z,0.21
2024-01-11T10:25:25.476Z,0.22
2024-01-11T10:30:27.382Z,0.22
2024-01-11T10:35:23.320Z,0.22
2024-01-11T10:40:22.956Z,0.23
2024-01-11T10:45:23.513Z,0.23
2024-01-11T10:50:22.868Z,0.24
2024-01-11T10:55:22.453Z,0.24
2024-01-11T11:00:06.038Z,0.24
2024-01-11T11:05:07.334Z,0.24
2024-01-11T11:10:06.770Z,0.24
2024-01-11T11:20:04.602Z,0.25
2024-01-11T11:25:04.490Z,0.25
2024-01-11T11:30:04.132Z,0.25
2024-01-11T11:35:05.030Z,0.25
2024-01-11T11:40:04.184Z,0.25
2024-01-11T11:45:03.866Z,0.25
2024-01-11T11:50:04.523Z,0.24
2024-01-11T11:55:02.376Z,0.24
2024-01-11T12:00:02.895Z,0.25
2024-01-11T12:05:02.601Z,0.23
2024-01-11T12:10:02.872Z,0.24
2024-01-11T12:15:02.403Z,0.24
2024-01-11T12:20:02.764Z,0.24
2024-01-11T12:25:02.383Z,0.23
2024-01-11T12:35:03.077Z,0.23
2024-01-11T12:40:00.091Z,0.23
2024-01-11T12:44:59.981Z,0.22
2024-01-11T12:49:59.916Z,0.21
2024-01-11T12:54:59.552Z,0.21
2024-01-11T13:00:00.161Z,0.21
2024-01-11T13:02:02.350Z,0.21
2024-01-11T13:06:23.712Z,0.2
2024-01-11T13:11:23.953Z,0.19
2024-01-11T13:16:20.976Z,0.19
2024-01-11T13:21:22.699Z,0.18
2024-01-11T13:26:21.409Z,0.17
2024-01-11T13:31:21.255Z,0.17
2024-01-11T13:36:20.814Z,0.16
2024-01-11T13:41:20.636Z,0.15
2024-01-11T13:46:21.151Z,0.15
2024-01-11T13:51:23.143Z,0.14
2024-01-11T13:56:24.080Z,0.13
2024-01-11T14:00:42.757Z,0.13
2024-01-11T14:05:42.207Z,0.12
2024-01-11T14:10:43.708Z,0.11
2024-01-11T14:15:41.769Z,0.1
2024-01-11T14:20:42.841Z,0.1
2024-01-11T14:25:48.946Z,0.09
2024-01-11T14:30:41.868Z,0.08
2024-01-11T14:35:45.631Z,0.08
2024-01-11T14:40:41.019Z,0.07
2024-01-11T14:45:38.975Z,0.06
2024-01-11T14:50:39.232Z,0.06
2024-01-11T14:55:39.288Z,0.05
2024-01-11T15:00:24.236Z,0.05
2024-01-11T15:05:23.422Z,0.04
2024-01-11T15:10:22.555Z,0.03
2024-01-11T15:15:22.805Z,0.03
2024-01-11T15:20:21.959Z,0.02
2024-01-11T15:25:20.486Z,0.02
2024-01-11T15:30:21.451Z,0.01
2024-01-11T15:35:21.734Z,0.01
2024-01-11T15:40:32.031Z,0.01
2024-01-11T15:45:19.760Z,0
2024-01-11T15:50:20.432Z,0
2024-01-11T15:55:19.217Z,0
2024-01-11T16:00:02.643Z,0
2024-01-11T16:04:59.894Z,0
2024-01-11T16:09:59.086Z,0
2024-01-11T16:14:59.613Z,0
2024-01-11T16:19:59.639Z,0
2024-01-11T16:25:00.137Z,0
2024-01-11T16:30:00.313Z,0
2024-01-11T16:34:58.977Z,0
2024-01-11T16:39:58.463Z,0
2024-01-11T16:44:56.094Z,0
2024-01-11T16:49:55.458Z,0
2024-01-11T16:54:54.861Z,0
2024-01-11T16:59:55.195Z,0
2024-01-11T17:04:57.091Z,0
2024-01-11T17:09:55.067Z,0
2024-01-11T17:14:57.708Z,0
2024-01-11T17:19:55.268Z,0
2024-01-11T17:24:55.922Z,0
2024-01-11T17:30:03.183Z,0
2024-01-11T17:35:05.556Z,0
2024-01-11T17:40:07.524Z,0
2024-01-11T17:44:53.429Z,0
2024-01-11T17:49:54.009Z,0
2024-01-11T17:54:53.876Z,0
2024-01-11T17:59:55.067Z,0
2024-01-11T18:01:56.886Z,0
2024-01-11T18:06:17.400Z,0
2024-01-11T18:11:15.892Z,0
2024-01-11T18:16:16.238Z,0
2024-01-11T18:21:16.545Z,0
2024-01-11T18:26:16.199Z,0
2024-01-11T18:31:15.902Z,0
2024-01-11T18:36:16.021Z,0
2024-01-11T18:41:14.711Z,0
2024-01-11T18:46:15.294Z,0
2024-01-11T18:51:15.341Z,0
2024-01-11T18:56:28.094Z,0
2024-01-11T19:00:36.963Z,0
2024-01-11T19:05:37.415Z,0
2024-01-11T19:10:36.860Z,0
2024-01-11T19:15:38.345Z,0
2024-01-11T19:20:37.575Z,0
2024-01-11T19:25:34.203Z,0
2024-01-11T19:30:34.651Z,0
2024-01-11T19:35:34.374Z,0
2024-01-11T19:40:33.406Z,0
2024-01-11T19:45:33.567Z,0
2024-01-11T19:50:34.572Z,0
2024-01-11T19:55:33.510Z,0
2024-01-11T20:00:23.641Z,0
2024-01-11T20:05:21.066Z,0
2024-01-11T20:10:20.368Z,0
2024-01-11T20:15:20.548Z,0
2024-01-11T20:20:21.078Z,0
2024-01-11T20:25:20.645Z,0
2024-01-11T20:30:22.277Z,0
2024-01-11T20:35:21.557Z,0
2024-01-11T20:40:21.036Z,0
2024-01-11T20:45:22.123Z,0
2024-01-11T20:50:18.432Z,0
2024-01-11T20:55:17.855Z,0
2024-01-11T21:00:01.237Z,0
2024-01-11T21:05:01.533Z,0
2024-01-11T21:10:01.930Z,0
2024-01-11T21:20:05.004Z,0
2024-01-11T21:25:03.552Z,0
2024-01-11T21:29:59.406Z,0
2024-01-11T21:34:59.957Z,0
2024-01-11T21:39:59.041Z,0
2024-01-11T21:44:59.784Z,0
2024-01-11T21:49:59.858Z,0
2024-01-11T21:54:59.988Z,0
2024-01-11T21:59:59.209Z,0
2024-01-11T22:04:59.570Z,0
2024-01-11T22:09:57.563Z,0
2024-01-11T22:14:56.932Z,0
2024-01-11T22:19:57.647Z,0
2024-01-11T22:24:56.783Z,0
2024-01-11T22:29:56.614Z,0
2024-01-11T22:34:56.539Z,0
2024-01-11T22:39:56.375Z,0
2024-01-11T22:44:56.306Z,0
2024-01-11T22:49:55.078Z,0
2024-01-11T22:54:54.300Z,0
2024-01-11T22:59:54.336Z,0
2024-01-11T23:01:56.368Z,0
2024-01-11T23:06:16.506Z,0
2024-01-11T23:11:16.355Z,0
2024-01-11T23:16:16.824Z,0
2024-01-11T23:21:16.703Z,0
2024-01-11T23:26:16.685Z,0
2024-01-11T23:31:14.514Z,0
2024-01-11T23:36:13.954Z,0
2024-01-11T23:41:13.558Z,0
2024-01-11T23:46:14.016Z,0
2024-01-11T23:51:14.356Z,0
2024-01-11T23:56:13.969Z,0
